createdAt,value
2019-05-17T00:01:04.000Z,280.46
2019-05-17T00:02:31.000Z,280.46
2019-05-17T00:04:34.000Z,280.4
2019-05-17T00:05:58.000Z,280.4
2019-05-17T00:08:04.000Z,280.4
2019-05-17T00:09:29.000Z,280.46
2019-05-17T00:11:32.000Z,280.4
2019-05-17T00:13:01.000Z,280.4
2019-05-17T00:15:02.000Z,280.34
2019-05-17T00:16:28.000Z,280.4
2019-05-17T00:18:29.000Z,280.4
2019-05-17T00:19:53.000Z,280.4
2019-05-17T00:21:56.000Z,280.4
2019-05-17T00:23:21.000Z,280.46
2019-05-17T00:25:27.000Z,280.4
2019-05-17T00:26:55.000Z,280.4
2019-05-17T00:29:02.000Z,280.4
2019-05-17T00:30:33.000Z,280.46
2019-05-17T00:32:45.000Z,280.46
2019-05-17T00:34:07.000Z,280.46
2019-05-17T00:37:48.000Z,280.46
2019-05-17T00:39:56.000Z,280.46
2019-05-17T00:41:42.000Z,280.46
2019-05-17T00:43:06.000Z,280.4
2019-05-17T00:45:07.000Z,280.4
2019-05-17T00:46:29.000Z,280.46
2019-05-17T00:48:31.000Z,280.52
2019-05-17T00:49:53.000Z,280.59
2019-05-17T00:51:56.000Z,280.52
2019-05-17T00:53:18.000Z,280.46
2019-05-17T00:55:18.000Z,280.4
2019-05-17T00:56:40.000Z,280.46
2019-05-17T00:58:42.000Z,280.46
2019-05-17T01:00:04.000Z,280.46
2019-05-17T01:02:08.000Z,280.4
2019-05-17T01:03:30.000Z,280.52
2019-05-17T01:05:31.000Z,280.52
2019-05-17T01:06:53.000Z,280.52
2019-05-17T01:08:55.000Z,280.52
2019-05-17T01:10:23.000Z,280.59
2019-05-17T01:12:26.000Z,280.59
2019-05-17T01:13:48.000Z,280.59
2019-05-17T01:15:49.000Z,280.59
2019-05-17T01:17:11.000Z,280.59
2019-05-17T01:19:12.000Z,280.52
2019-05-17T01:20:37.000Z,280.46
2019-05-17T01:22:38.000Z,280.4
2019-05-17T01:24:01.000Z,280.4
2019-05-17T01:26:03.000Z,280.34
2019-05-17T01:27:28.000Z,280.34
2019-05-17T01:29:30.000Z,280.34
2019-05-17T01:30:52.000Z,280.4
2019-05-17T01:32:53.000Z,280.4
2019-05-17T01:34:17.000Z,280.4
2019-05-17T01:36:18.000Z,280.4
2019-05-17T01:37:40.000Z,280.52
2019-05-17T01:39:42.000Z,280.52
2019-05-17T01:41:07.000Z,280.52
2019-05-17T01:43:09.000Z,280.52
2019-05-17T01:44:33.000Z,280.46
2019-05-17T01:46:36.000Z,280.4
2019-05-17T01:47:58.000Z,280.4
2019-05-17T01:50:02.000Z,280.34
2019-05-17T01:51:26.000Z,280.34
2019-05-17T01:53:30.000Z,280.34
2019-05-17T01:54:53.000Z,280.34
2019-05-17T01:56:56.000Z,280.34
2019-05-17T01:58:18.000Z,280.34
2019-05-17T02:00:19.000Z,280.34
2019-05-17T02:01:43.000Z,280.34
2019-05-17T02:03:46.000Z,280.34
2019-05-17T02:05:11.000Z,280.34
2019-05-17T02:07:12.000Z,280.27
2019-05-17T02:08:39.000Z,280.27
2019-05-17T02:10:44.000Z,280.34
2019-05-17T02:12:09.000Z,280.34
2019-05-17T02:14:13.000Z,280.27
2019-05-17T02:15:36.000Z,280.27
2019-05-17T02:17:38.000Z,280.34
2019-05-17T02:19:00.000Z,280.34
2019-05-17T02:21:04.000Z,280.27
2019-05-17T02:22:27.000Z,280.34
2019-05-17T02:24:30.000Z,280.34
2019-05-17T02:25:53.000Z,280.27
2019-05-17T02:27:57.000Z,280.27
2019-05-17T02:29:22.000Z,280.27
2019-05-17T02:31:26.000Z,280.27
2019-05-17T02:32:49.000Z,280.34
2019-05-17T02:34:53.000Z,280.34
2019-05-17T02:36:18.000Z,280.34
2019-05-17T02:38:22.000Z,280.4
2019-05-17T02:39:47.000Z,280.4
2019-05-17T02:42:02.000Z,280.34
2019-05-17T02:43:26.000Z,280.4
2019-05-17T02:45:28.000Z,280.27
2019-05-17T02:46:54.000Z,280.27
2019-05-17T02:48:54.000Z,280.27
2019-05-17T02:50:19.000Z,280.34
2019-05-17T02:52:25.000Z,280.34
2019-05-17T02:53:51.000Z,280.34
2019-05-17T02:55:55.000Z,280.4
2019-05-17T02:57:18.000Z,280.46
2019-05-17T02:59:24.000Z,280.34
2019-05-17T03:00:49.000Z,280.34
2019-05-17T03:02:58.000Z,280.34
2019-05-17T03:04:29.000Z,280.34
2019-05-17T03:06:33.000Z,280.4
2019-05-17T03:07:58.000Z,280.4
2019-05-17T03:10:06.000Z,280.34
2019-05-17T03:11:46.000Z,280.34
2019-05-17T03:13:51.000Z,280.34
2019-05-17T03:15:14.000Z,280.34
2019-05-17T03:17:21.000Z,280.27
2019-05-17T03:18:44.000Z,280.27
2019-05-17T03:20:50.000Z,280.27
2019-05-17T03:22:15.000Z,280.21
2019-05-17T03:24:16.000Z,280.21
2019-05-17T03:25:47.000Z,280.21
2019-05-17T03:27:51.000Z,280.27
2019-05-17T03:29:16.000Z,280.21
2019-05-17T03:31:25.000Z,280.21
2019-05-17T03:33:00.000Z,280.21
2019-05-17T03:35:13.000Z,280.21
2019-05-17T03:36:41.000Z,280.27
2019-05-17T03:38:51.000Z,280.27
2019-05-17T03:40:20.000Z,280.27
2019-05-17T03:43:07.000Z,280.21
2019-05-17T03:44:38.000Z,280.21
2019-05-17T03:46:44.000Z,280.27
2019-05-17T03:48:08.000Z,280.27
2019-05-17T03:50:17.000Z,280.27
2019-05-17T03:51:44.000Z,280.34
2019-05-17T03:53:47.000Z,280.34
2019-05-17T03:55:10.000Z,280.34
2019-05-17T03:57:18.000Z,280.34
2019-05-17T03:58:50.000Z,280.34
2019-05-17T04:00:53.000Z,280.4
2019-05-17T04:02:18.000Z,280.4
2019-05-17T04:04:28.000Z,280.34
2019-05-17T04:06:00.000Z,280.34
2019-05-17T04:08:10.000Z,280.4
2019-05-17T04:09:42.000Z,280.4
2019-05-17T04:11:48.000Z,280.4
2019-05-17T04:13:18.000Z,280.34
2019-05-17T04:15:26.000Z,280.34
2019-05-17T04:16:55.000Z,280.34
2019-05-17T04:19:05.000Z,280.34
2019-05-17T04:20:34.000Z,280.4
2019-05-17T04:22:38.000Z,280.4
2019-05-17T04:24:08.000Z,280.4
2019-05-17T04:26:15.000Z,280.46
2019-05-17T04:27:43.000Z,280.46
2019-05-17T04:29:47.000Z,280.46
2019-05-17T04:31:16.000Z,280.46
2019-05-17T04:33:20.000Z,280.46
2019-05-17T04:34:49.000Z,280.52
2019-05-17T04:37:02.000Z,280.59
2019-05-17T04:38:32.000Z,280.59
2019-05-17T04:40:38.000Z,280.59
2019-05-17T04:42:12.000Z,280.52
2019-05-17T04:45:52.000Z,280.52
2019-05-17T04:46:41.000Z,280.52
2019-05-17T04:48:16.000Z,280.52
2019-05-17T04:50:27.000Z,280.59
2019-05-17T04:51:59.000Z,280.65
2019-05-17T04:54:16.000Z,280.65
2019-05-17T04:55:47.000Z,280.71
2019-05-17T04:58:02.000Z,280.65
2019-05-17T04:59:33.000Z,280.65
2019-05-17T05:01:42.000Z,280.71
2019-05-17T05:03:13.000Z,280.77
2019-05-17T05:05:30.000Z,280.77
2019-05-17T05:07:01.000Z,280.71
2019-05-17T05:09:12.000Z,280.71
2019-05-17T05:10:40.000Z,280.71
2019-05-17T05:14:26.000Z,280.65
2019-05-17T05:16:32.000Z,280.65
2019-05-17T05:18:39.000Z,280.71
2019-05-17T05:20:46.000Z,280.71
2019-05-17T05:22:34.000Z,280.65
2019-05-17T05:23:56.000Z,280.71
2019-05-17T05:25:56.000Z,280.77
2019-05-17T05:27:18.000Z,280.77
2019-05-17T05:29:21.000Z,280.77
2019-05-17T05:30:43.000Z,280.77
2019-05-17T05:32:44.000Z,280.71
2019-05-17T05:34:06.000Z,280.77
2019-05-17T05:36:07.000Z,280.77
2019-05-17T05:37:32.000Z,280.84
2019-05-17T05:39:33.000Z,280.84
2019-05-17T05:40:55.000Z,280.9
2019-05-17T05:42:56.000Z,280.9
2019-05-17T05:44:18.000Z,280.96
2019-05-17T05:46:20.000Z,280.9
2019-05-17T05:47:42.000Z,280.9
2019-05-17T05:49:43.000Z,280.96
2019-05-17T05:51:06.000Z,281.02
2019-05-17T05:53:10.000Z,281.02
2019-05-17T05:54:33.000Z,280.96
2019-05-17T05:56:36.000Z,280.9
2019-05-17T05:57:59.000Z,280.96
2019-05-17T06:00:02.000Z,281.02
2019-05-17T06:01:25.000Z,281.02
2019-05-17T06:03:26.000Z,281.09
2019-05-17T06:04:49.000Z,281.09
2019-05-17T06:06:54.000Z,281.02
2019-05-17T06:08:18.000Z,281.02
2019-05-17T06:10:21.000Z,280.96
2019-05-17T06:11:45.000Z,280.96
2019-05-17T06:13:46.000Z,281.09
2019-05-17T06:15:08.000Z,281.09
2019-05-17T06:17:12.000Z,281.02
2019-05-17T06:18:35.000Z,280.96
2019-05-17T06:20:37.000Z,280.96
2019-05-17T06:22:03.000Z,280.96
2019-05-17T06:24:04.000Z,281.02
2019-05-17T06:25:27.000Z,281.02
2019-05-17T06:27:28.000Z,281.15
2019-05-17T06:28:52.000Z,281.21
2019-05-17T06:30:53.000Z,281.15
2019-05-17T06:32:15.000Z,281.21
2019-05-17T06:34:16.000Z,281.21
2019-05-17T06:35:38.000Z,281.27
2019-05-17T06:37:42.000Z,281.27
2019-05-17T06:39:04.000Z,281.34
2019-05-17T06:41:06.000Z,281.34
2019-05-17T06:42:30.000Z,281.27
2019-05-17T06:44:39.000Z,281.27
2019-05-17T06:46:03.000Z,281.34
2019-05-17T06:48:07.000Z,281.34
2019-05-17T06:49:35.000Z,281.34
2019-05-17T06:51:37.000Z,281.34
2019-05-17T06:53:06.000Z,281.4
2019-05-17T06:55:07.000Z,281.46
2019-05-17T06:56:33.000Z,281.46
2019-05-17T06:58:35.000Z,281.46
2019-05-17T06:59:57.000Z,281.46
2019-05-17T07:02:04.000Z,281.46
2019-05-17T07:03:29.000Z,281.52
2019-05-17T07:05:30.000Z,281.52
2019-05-17T07:06:53.000Z,281.59
2019-05-17T07:08:56.000Z,281.59
2019-05-17T07:10:21.000Z,281.65
2019-05-17T07:12:25.000Z,281.65
2019-05-17T07:13:51.000Z,281.77
2019-05-17T07:15:54.000Z,281.71
2019-05-17T07:17:18.000Z,281.71
2019-05-17T07:19:22.000Z,281.84
2019-05-17T07:20:44.000Z,281.9
2019-05-17T07:22:52.000Z,281.9
2019-05-17T07:24:15.000Z,281.9
2019-05-17T07:26:21.000Z,281.84
2019-05-17T07:27:44.000Z,281.84
2019-05-17T07:29:47.000Z,281.9
2019-05-17T07:31:12.000Z,281.9
2019-05-17T07:33:16.000Z,282.02
2019-05-17T07:34:43.000Z,282.09
2019-05-17T07:38:19.000Z,282.21
2019-05-17T07:39:11.000Z,282.27
2019-05-17T07:40:36.000Z,282.27
2019-05-17T07:42:39.000Z,282.27
2019-05-17T07:44:06.000Z,282.34
2019-05-17T07:46:13.000Z,282.27
2019-05-17T07:47:38.000Z,282.34
2019-05-17T07:49:41.000Z,282.34
2019-05-17T07:51:04.000Z,282.4
2019-05-17T07:53:08.000Z,282.46
2019-05-17T07:54:31.000Z,282.52
2019-05-17T07:56:41.000Z,282.52
2019-05-17T07:58:10.000Z,282.46
2019-05-17T08:00:15.000Z,282.46
2019-05-17T08:01:48.000Z,282.59
2019-05-17T08:03:58.000Z,282.59
2019-05-17T08:05:26.000Z,282.65
2019-05-17T08:07:32.000Z,282.65
2019-05-17T08:08:58.000Z,282.71
2019-05-17T08:11:08.000Z,282.77
2019-05-17T08:12:31.000Z,282.77
2019-05-17T08:14:34.000Z,282.77
2019-05-17T08:16:00.000Z,282.77
2019-05-17T08:18:00.000Z,282.84
2019-05-17T08:19:27.000Z,282.9
2019-05-17T08:21:35.000Z,283.02
2019-05-17T08:23:04.000Z,283.09
2019-05-17T08:25:12.000Z,283.15
2019-05-17T08:26:36.000Z,283.21
2019-05-17T08:28:48.000Z,283.21
2019-05-17T08:30:17.000Z,283.27
2019-05-17T08:32:27.000Z,283.27
2019-05-17T08:33:56.000Z,283.27
2019-05-17T08:36:02.000Z,283.34
2019-05-17T08:37:28.000Z,283.4
2019-05-17T08:39:32.000Z,283.52
2019-05-17T08:40:57.000Z,283.59
2019-05-17T08:43:05.000Z,283.65
2019-05-17T08:44:33.000Z,283.71
2019-05-17T08:46:41.000Z,283.77
2019-05-17T08:48:08.000Z,283.84
2019-05-17T08:50:15.000Z,283.84
2019-05-17T08:51:38.000Z,283.96
2019-05-17T08:53:51.000Z,284.09
2019-05-17T08:55:17.000Z,284.21
2019-05-17T08:57:28.000Z,284.34
2019-05-17T08:59:01.000Z,284.46
2019-05-17T09:01:10.000Z,284.65
2019-05-17T09:02:39.000Z,284.71
2019-05-17T09:04:44.000Z,284.77
2019-05-17T09:06:13.000Z,284.77
2019-05-17T09:08:28.000Z,284.9
2019-05-17T09:09:55.000Z,285.15
2019-05-17T09:12:05.000Z,285.09
2019-05-17T09:13:31.000Z,285.15
2019-05-17T09:15:38.000Z,285.21
2019-05-17T09:17:07.000Z,285.27
2019-05-17T09:19:20.000Z,285.34
2019-05-17T09:20:51.000Z,285.4
2019-05-17T09:23:02.000Z,285.52
2019-05-17T09:24:28.000Z,285.52
2019-05-17T09:26:36.000Z,285.59
2019-05-17T09:28:06.000Z,285.52
2019-05-17T09:30:18.000Z,285.59
2019-05-17T09:31:47.000Z,285.59
2019-05-17T09:34:02.000Z,285.65
2019-05-17T09:35:29.000Z,285.71
2019-05-17T09:37:40.000Z,285.71
2019-05-17T09:39:12.000Z,285.71
2019-05-17T09:42:53.000Z,285.34
2019-05-17T09:43:28.000Z,285.34
2019-05-17T09:44:58.000Z,285.34
2019-05-17T09:47:12.000Z,285.46
2019-05-17T09:48:44.000Z,285.65
2019-05-17T09:50:55.000Z,285.84
2019-05-17T09:52:29.000Z,285.96
2019-05-17T09:54:45.000Z,286.02
2019-05-17T09:56:19.000Z,286.09
2019-05-17T09:58:28.000Z,286.15
2019-05-17T09:59:57.000Z,286.27
2019-05-17T10:02:08.000Z,286.27
2019-05-17T10:03:36.000Z,286.34
2019-05-17T10:05:46.000Z,286.34
2019-05-17T10:07:20.000Z,286.21
2019-05-17T10:10:42.000Z,286.09
2019-05-17T10:12:04.000Z,286.09
2019-05-17T10:14:05.000Z,286.09
2019-05-17T10:15:31.000Z,286.02
2019-05-17T10:17:32.000Z,286.09
2019-05-17T10:18:54.000Z,286.09
2019-05-17T10:20:56.000Z,286.09
2019-05-17T10:22:19.000Z,286.15
2019-05-17T10:24:20.000Z,286.21
2019-05-17T10:25:57.000Z,286.27
2019-05-17T10:27:58.000Z,286.27
2019-05-17T10:29:21.000Z,286.34
2019-05-17T10:31:22.000Z,286.46
2019-05-17T10:32:44.000Z,286.46
2019-05-17T10:34:45.000Z,286.46
2019-05-17T10:36:10.000Z,286.59
2019-05-17T10:38:11.000Z,286.71
2019-05-17T10:39:34.000Z,286.65
2019-05-17T10:41:41.000Z,286.59
2019-05-17T10:43:03.000Z,286.65
2019-05-17T10:45:04.000Z,286.65
2019-05-17T10:46:26.000Z,286.71
2019-05-17T10:48:31.000Z,286.71
2019-05-17T10:49:53.000Z,286.77
2019-05-17T10:51:54.000Z,286.71
2019-05-17T10:53:17.000Z,286.77
2019-05-17T10:55:19.000Z,286.84
2019-05-17T10:56:42.000Z,286.96
2019-05-17T10:58:44.000Z,286.96
2019-05-17T11:00:06.000Z,287.02
2019-05-17T11:02:09.000Z,287.02
2019-05-17T11:03:33.000Z,287.02
2019-05-17T11:05:34.000Z,287.02
2019-05-17T11:07:00.000Z,287.15
2019-05-17T11:09:03.000Z,287.15
2019-05-17T11:10:27.000Z,287.21
2019-05-17T11:12:28.000Z,287.34
2019-05-17T11:13:51.000Z,287.4
2019-05-17T11:15:55.000Z,287.4
2019-05-17T11:17:19.000Z,287.4
2019-05-17T11:19:21.000Z,287.4
2019-05-17T11:20:46.000Z,287.52
2019-05-17T11:22:49.000Z,287.84
2019-05-17T11:24:12.000Z,288.02
2019-05-17T11:26:13.000Z,288.09
2019-05-17T11:27:38.000Z,288.27
2019-05-17T11:29:40.000Z,288.15
2019-05-17T11:31:02.000Z,288.15
2019-05-17T11:33:03.000Z,288.52
2019-05-17T11:34:27.000Z,288.65
2019-05-17T11:36:29.000Z,288.65
2019-05-17T11:37:52.000Z,288.65
2019-05-17T11:39:55.000Z,288.65
2019-05-17T11:41:17.000Z,288.52
2019-05-17T11:43:20.000Z,288.71
2019-05-17T11:44:43.000Z,288.59
2019-05-17T11:46:47.000Z,288.52
2019-05-17T11:48:10.000Z,288.52
2019-05-17T11:50:11.000Z,288.46
2019-05-17T11:51:34.000Z,288.65
2019-05-17T11:53:37.000Z,288.71
2019-05-17T11:55:03.000Z,288.77
2019-05-17T11:57:05.000Z,288.65
2019-05-17T11:58:29.000Z,288.52
2019-05-17T12:00:30.000Z,288.71
2019-05-17T12:01:55.000Z,289.21
2019-05-17T12:03:57.000Z,289.15
2019-05-17T12:05:21.000Z,289.15
2019-05-17T12:07:22.000Z,288.77
2019-05-17T12:08:46.000Z,288.84
2019-05-17T12:10:50.000Z,288.96
2019-05-17T12:12:12.000Z,289.09
2019-05-17T12:14:14.000Z,289.09
2019-05-17T12:15:36.000Z,288.96
2019-05-17T12:17:45.000Z,288.77
2019-05-17T12:19:09.000Z,288.65
2019-05-17T12:21:11.000Z,288.65
2019-05-17T12:22:36.000Z,288.59
2019-05-17T12:24:48.000Z,288.59
2019-05-17T12:26:16.000Z,288.59
2019-05-17T12:28:19.000Z,288.4
2019-05-17T12:29:44.000Z,288.52
2019-05-17T12:31:49.000Z,288.65
2019-05-17T12:33:13.000Z,288.59
2019-05-17T12:35:17.000Z,288.71
2019-05-17T12:36:42.000Z,288.77
2019-05-17T12:38:47.000Z,288.71
2019-05-17T12:40:16.000Z,288.71
2019-05-17T12:42:22.000Z,288.77
2019-05-17T12:43:50.000Z,288.71
2019-05-17T12:46:01.000Z,288.65
2019-05-17T12:47:27.000Z,288.65
2019-05-17T12:49:31.000Z,288.65
2019-05-17T12:50:58.000Z,288.71
2019-05-17T12:53:00.000Z,288.71
2019-05-17T12:54:23.000Z,288.71
2019-05-17T12:56:31.000Z,288.71
2019-05-17T12:57:55.000Z,288.71
2019-05-17T13:00:01.000Z,288.84
2019-05-17T13:01:24.000Z,288.96
2019-05-17T13:03:31.000Z,289.02
2019-05-17T13:04:59.000Z,289.09
2019-05-17T13:07:08.000Z,289.15
2019-05-17T13:08:35.000Z,289.34
2019-05-17T13:10:41.000Z,289.46
2019-05-17T13:12:07.000Z,289.4
2019-05-17T13:14:12.000Z,289.21
2019-05-17T13:15:37.000Z,289.15
2019-05-17T13:17:44.000Z,289.09
2019-05-17T13:19:11.000Z,289.09
2019-05-17T13:21:18.000Z,289.09
2019-05-17T13:22:42.000Z,289.21
2019-05-17T13:24:47.000Z,289.21
2019-05-17T13:26:15.000Z,289.27
2019-05-17T13:28:17.000Z,289.27
2019-05-17T13:29:42.000Z,289.4
2019-05-17T13:31:49.000Z,289.52
2019-05-17T13:33:16.000Z,289.71
2019-05-17T13:35:23.000Z,289.65
2019-05-17T13:36:51.000Z,289.71
2019-05-17T13:38:58.000Z,289.65
2019-05-17T13:40:21.000Z,289.59
2019-05-17T13:42:31.000Z,289.52
2019-05-17T13:43:58.000Z,289.71
2019-05-17T13:46:06.000Z,290.15
2019-05-17T13:47:35.000Z,290.09
2019-05-17T13:49:39.000Z,289.84
2019-05-17T13:51:09.000Z,289.77
2019-05-17T13:53:18.000Z,289.84
2019-05-17T13:54:47.000Z,289.84
2019-05-17T13:56:49.000Z,289.84
2019-05-17T13:58:21.000Z,289.9
2019-05-17T14:00:34.000Z,290.02
2019-05-17T14:02:08.000Z,290.02
2019-05-17T14:04:19.000Z,290.15
2019-05-17T14:05:52.000Z,290.21
2019-05-17T14:08:06.000Z,290.02
2019-05-17T14:09:38.000Z,289.84
2019-05-17T14:11:50.000Z,289.71
2019-05-17T14:13:23.000Z,290.02
2019-05-17T14:15:33.000Z,290.02
2019-05-17T14:17:03.000Z,290.02
2019-05-17T14:19:13.000Z,289.84
2019-05-17T14:20:41.000Z,289.9
2019-05-17T14:22:52.000Z,289.65
2019-05-17T14:24:21.000Z,289.77
2019-05-17T14:26:29.000Z,289.84
2019-05-17T14:28:02.000Z,289.9
2019-05-17T14:30:09.000Z,289.71
2019-05-17T14:31:47.000Z,289.77
2019-05-17T14:34:00.000Z,290.15
2019-05-17T14:35:30.000Z,290.34
2019-05-17T14:37:41.000Z,290.4
2019-05-17T14:39:11.000Z,290.4
2019-05-17T14:41:17.000Z,290.52
2019-05-17T14:42:48.000Z,290.21
2019-05-17T14:45:01.000Z,289.96
2019-05-17T14:46:32.000Z,289.96
2019-05-17T14:48:42.000Z,289.96
2019-05-17T14:50:11.000Z,289.96
2019-05-17T14:52:23.000Z,289.9
2019-05-17T14:53:56.000Z,290.34
2019-05-17T14:56:02.000Z,290.52
2019-05-17T14:57:32.000Z,290.27
2019-05-17T15:00:54.000Z,290.15
2019-05-17T15:02:16.000Z,290.02
2019-05-17T15:04:17.000Z,289.9
2019-05-17T15:05:39.000Z,289.84
2019-05-17T15:07:40.000Z,289.9
2019-05-17T15:09:02.000Z,289.84
2019-05-17T15:11:03.000Z,289.84
2019-05-17T15:12:25.000Z,290.27
2019-05-17T15:14:27.000Z,290.34
2019-05-17T15:15:50.000Z,290.21
2019-05-17T15:17:50.000Z,290.15
2019-05-17T15:19:12.000Z,290.21
2019-05-17T15:21:13.000Z,290.27
2019-05-17T15:22:35.000Z,290.65
2019-05-17T15:24:36.000Z,290.59
2019-05-17T15:26:00.000Z,290.52
2019-05-17T15:28:02.000Z,290.59
2019-05-17T15:29:24.000Z,290.52
2019-05-17T15:31:25.000Z,290.59
2019-05-17T15:32:47.000Z,290.34
2019-05-17T15:34:48.000Z,290.46
2019-05-17T15:36:10.000Z,290.65
2019-05-17T15:38:11.000Z,290.84
2019-05-17T15:39:33.000Z,290.9
2019-05-17T15:41:34.000Z,290.96
2019-05-17T15:42:56.000Z,290.96
2019-05-17T15:44:58.000Z,290.77
2019-05-17T15:46:22.000Z,290.9
2019-05-17T15:48:24.000Z,291.15
2019-05-17T15:49:46.000Z,290.96
2019-05-17T15:51:47.000Z,291.15
2019-05-17T15:53:13.000Z,291.34
2019-05-17T15:55:15.000Z,291.27
2019-05-17T15:56:37.000Z,291.46
2019-05-17T15:58:38.000Z,291.21
2019-05-17T16:00:00.000Z,291.4
2019-05-17T16:02:03.000Z,291.65
2019-05-17T16:03:25.000Z,291.65
2019-05-17T16:05:28.000Z,291.9
2019-05-17T16:06:50.000Z,292.02
2019-05-17T16:08:51.000Z,291.96
2019-05-17T16:10:13.000Z,291.9
2019-05-17T16:12:15.000Z,291.34
2019-05-17T16:13:38.000Z,290.96
2019-05-17T16:15:39.000Z,291.09
2019-05-17T16:17:03.000Z,291.21
2019-05-17T16:19:05.000Z,291.21
2019-05-17T16:20:27.000Z,291.21
2019-05-17T16:22:29.000Z,291.09
2019-05-17T16:23:52.000Z,291.02
2019-05-17T16:25:53.000Z,290.9
2019-05-17T16:27:18.000Z,290.9
2019-05-17T16:29:20.000Z,290.9
2019-05-17T16:30:42.000Z,291.02
2019-05-17T16:32:44.000Z,291.15
2019-05-17T16:34:07.000Z,291.15
2019-05-17T16:36:08.000Z,291.09
2019-05-17T16:37:31.000Z,291.02
2019-05-17T16:39:34.000Z,291.15
2019-05-17T16:40:57.000Z,291.21
2019-05-17T16:43:01.000Z,291.21
2019-05-17T16:44:39.000Z,291.34
2019-05-17T16:46:43.000Z,291.46
2019-05-17T16:48:07.000Z,291.46
2019-05-17T16:50:09.000Z,291.34
2019-05-17T16:51:34.000Z,291.21
2019-05-17T16:53:36.000Z,291.21
2019-05-17T16:55:00.000Z,291.21
2019-05-17T16:57:02.000Z,291.27
2019-05-17T16:58:25.000Z,291.46
2019-05-17T17:00:28.000Z,291.52
2019-05-17T17:01:50.000Z,291.59
2019-05-17T17:03:51.000Z,291.65
2019-05-17T17:05:14.000Z,291.27
2019-05-17T17:07:21.000Z,291.21
2019-05-17T17:08:44.000Z,291.15
2019-05-17T17:10:49.000Z,291.09
2019-05-17T17:12:12.000Z,291.4
2019-05-17T17:14:15.000Z,291.59
2019-05-17T17:15:41.000Z,291.71
2019-05-17T17:17:45.000Z,291.84
2019-05-17T17:19:09.000Z,291.77
2019-05-17T17:21:14.000Z,291.71
2019-05-17T17:22:38.000Z,291.71
2019-05-17T17:24:44.000Z,291.65
2019-05-17T17:26:08.000Z,291.65
2019-05-17T17:28:20.000Z,291.52
2019-05-17T17:29:53.000Z,291.34
2019-05-17T17:31:57.000Z,291.15
2019-05-17T17:33:22.000Z,290.96
2019-05-17T17:35:31.000Z,290.65
2019-05-17T17:36:55.000Z,290.71
2019-05-17T17:38:59.000Z,290.52
2019-05-17T17:40:26.000Z,290.59
2019-05-17T17:42:32.000Z,290.59
2019-05-17T17:44:00.000Z,290.59
2019-05-17T17:46:09.000Z,290.4
2019-05-17T17:47:31.000Z,290.34
2019-05-17T17:49:36.000Z,290.34
2019-05-17T17:50:59.000Z,290.27
2019-05-17T17:53:08.000Z,290.27
2019-05-17T17:54:36.000Z,290.27
2019-05-17T17:56:41.000Z,290.34
2019-05-17T17:58:08.000Z,290.4
2019-05-17T18:00:20.000Z,290.46
2019-05-17T18:01:46.000Z,290.4
2019-05-17T18:03:57.000Z,290.34
2019-05-17T18:05:23.000Z,290.4
2019-05-17T18:07:35.000Z,290.21
2019-05-17T18:09:06.000Z,290.15
2019-05-17T18:11:11.000Z,289.9
2019-05-17T18:12:37.000Z,289.77
2019-05-17T18:14:48.000Z,289.77
2019-05-17T18:16:14.000Z,289.71
2019-05-17T18:18:23.000Z,289.52
2019-05-17T18:19:54.000Z,289.46
2019-05-17T18:21:59.000Z,289.34
2019-05-17T18:23:27.000Z,289.27
2019-05-17T18:25:37.000Z,289.15
2019-05-17T18:27:07.000Z,289.21
2019-05-17T18:29:09.000Z,288.96
2019-05-17T18:30:39.000Z,289.02
2019-05-17T18:32:45.000Z,288.9
2019-05-17T18:34:13.000Z,288.9
2019-05-17T18:36:20.000Z,288.71
2019-05-17T18:37:50.000Z,288.77
2019-05-17T18:39:53.000Z,288.59
2019-05-17T18:41:19.000Z,288.52
2019-05-17T18:43:30.000Z,288.15
2019-05-17T18:45:01.000Z,288.15
2019-05-17T18:47:11.000Z,287.96
2019-05-17T18:48:40.000Z,288.02
2019-05-17T18:50:54.000Z,287.65
2019-05-17T18:52:20.000Z,287.71
2019-05-17T18:54:29.000Z,287.52
2019-05-17T18:55:58.000Z,287.4
2019-05-17T18:58:08.000Z,287.15
2019-05-17T18:59:38.000Z,286.96
2019-05-17T19:01:47.000Z,286.65
2019-05-17T19:03:14.000Z,286.65
2019-05-17T19:05:22.000Z,286.4
2019-05-17T19:06:56.000Z,286.21
2019-05-17T19:09:03.000Z,286.15
2019-05-17T19:10:35.000Z,286.27
2019-05-17T19:12:45.000Z,286.21
2019-05-17T19:14:16.000Z,286.02
2019-05-17T19:16:29.000Z,285.9
2019-05-17T19:18:01.000Z,285.96
2019-05-17T19:20:08.000Z,285.77
2019-05-17T19:21:39.000Z,285.71
2019-05-17T19:23:46.000Z,286.02
2019-05-17T19:25:16.000Z,286.02
2019-05-17T19:28:59.000Z,285.9
2019-05-17T19:29:34.000Z,285.96
2019-05-17T19:31:07.000Z,285.84
2019-05-17T19:33:10.000Z,285.52
2019-05-17T19:34:42.000Z,285.59
2019-05-17T19:38:24.000Z,285.4
2019-05-17T19:39:14.000Z,285.27
2019-05-17T19:40:46.000Z,284.96
2019-05-17T19:43:01.000Z,284.9
2019-05-17T19:44:31.000Z,285.09
2019-05-17T19:47:58.000Z,284.59
2019-05-17T19:49:20.000Z,284.65
2019-05-17T19:51:21.000Z,284.4
2019-05-17T19:52:43.000Z,284.27
2019-05-17T19:54:44.000Z,284.34
2019-05-17T19:56:06.000Z,284.34
2019-05-17T19:58:07.000Z,284.15
2019-05-17T19:59:29.000Z,284.09
2019-05-17T20:01:30.000Z,283.84
2019-05-17T20:02:52.000Z,283.71
2019-05-17T20:04:53.000Z,283.65
2019-05-17T20:06:15.000Z,283.77
2019-05-17T20:08:16.000Z,283.65
2019-05-17T20:09:38.000Z,283.52
2019-05-17T20:11:41.000Z,283.27
2019-05-17T20:13:03.000Z,283.34
2019-05-17T20:15:04.000Z,283.34
2019-05-17T20:16:37.000Z,283.65
2019-05-17T20:18:39.000Z,283.59
2019-05-17T20:20:01.000Z,283.65
2019-05-17T20:22:03.000Z,283.84
2019-05-17T20:23:25.000Z,283.52
2019-05-17T20:25:27.000Z,283.27
2019-05-17T20:26:52.000Z,283.27
2019-05-17T20:28:55.000Z,283.21
2019-05-17T20:30:17.000Z,283.15
2019-05-17T20:32:18.000Z,282.96
2019-05-17T20:33:41.000Z,282.84
2019-05-17T20:35:43.000Z,282.9
2019-05-17T20:37:06.000Z,282.9
2019-05-17T20:39:09.000Z,282.77
2019-05-17T20:40:31.000Z,282.52
2019-05-17T20:42:33.000Z,282.46
2019-05-17T20:43:57.000Z,282.52
2019-05-17T20:45:59.000Z,282.65
2019-05-17T20:47:22.000Z,282.52
2019-05-17T20:49:27.000Z,282.71
2019-05-17T20:50:51.000Z,282.65
2019-05-17T20:52:53.000Z,282.71
2019-05-17T20:54:15.000Z,282.65
2019-05-17T20:56:18.000Z,282.52
2019-05-17T20:57:53.000Z,282.65
2019-05-17T20:59:54.000Z,282.46
2019-05-17T21:01:19.000Z,282.46
2019-05-17T21:03:22.000Z,282.59
2019-05-17T21:04:45.000Z,282.77
2019-05-17T21:06:48.000Z,282.65
2019-05-17T21:08:13.000Z,282.65
2019-05-17T21:10:16.000Z,282.59
2019-05-17T21:11:38.000Z,282.52
2019-05-17T21:13:40.000Z,282.46
2019-05-17T21:15:03.000Z,282.46
2019-05-17T21:17:06.000Z,282.4
2019-05-17T21:18:29.000Z,282.34
2019-05-17T21:20:32.000Z,282.34
2019-05-17T21:21:55.000Z,282.34
2019-05-17T21:23:59.000Z,282.46
2019-05-17T21:25:22.000Z,282.52
2019-05-17T21:27:24.000Z,282.46
2019-05-17T21:28:50.000Z,282.52
2019-05-17T21:30:51.000Z,282.52
2019-05-17T21:32:14.000Z,282.46
2019-05-17T21:34:16.000Z,282.52
2019-05-17T21:35:38.000Z,282.46
2019-05-17T21:37:41.000Z,282.65
2019-05-17T21:39:06.000Z,282.84
2019-05-17T21:41:09.000Z,282.77
2019-05-17T21:42:33.000Z,282.65
2019-05-17T21:44:34.000Z,282.52
2019-05-17T21:45:57.000Z,282.59
2019-05-17T21:48:05.000Z,282.65
2019-05-17T21:49:30.000Z,282.77
2019-05-17T21:51:33.000Z,282.96
2019-05-17T21:52:59.000Z,283.09
2019-05-17T21:55:04.000Z,283.09
2019-05-17T21:56:27.000Z,283.02
2019-05-17T21:58:27.000Z,283.02
2019-05-17T21:59:49.000Z,283.15
2019-05-17T22:01:57.000Z,283.34
2019-05-17T22:03:22.000Z,283.4
2019-05-17T22:05:24.000Z,283.4
2019-05-17T22:06:50.000Z,283.27
2019-05-17T22:08:56.000Z,283.09
2019-05-17T22:10:20.000Z,283.15
2019-05-17T22:12:28.000Z,283.02